Time;durP1;ratioP1;P1;durP2;ratioP2;P2;SDS_P1;SDS_P2;PMS_P1;PMS_P2;Temp;Humidity;BMP_temperature;BMP_pressure;BME280_temperature;BME280_humidity;BME280_pressure;Samples;Min_cycle;Max_cycle;Signal;HPM_P1;HPM_P2
2022/05/24 00:00:37;;;;;;;7.35;4.47;;;14.70;99.90;;;;;;5015261;28;20477;-69
2022/05/24 00:03:05;;;;;;;6.40;4.35;;;14.90;99.90;;;;;;5030877;28;20076;-69
2022/05/24 00:05:35;;;;;;;8.50;4.20;;;14.90;99.90;;;;;;5024089;28;20080;-69
2022/05/24 00:08:03;;;;;;;7.38;4.18;;;14.90;99.90;;;;;;5030874;28;20049;-69
2022/05/24 00:10:32;;;;;;;9.93;4.63;;;15.10;99.90;;;;;;5028646;28;20017;-69
2022/05/24 00:12:59;;;;;;;10.40;4.68;;;15.00;99.90;;;;;;5016286;28;20036;-68
2022/05/24 00:15:30;;;;;;;6.05;3.85;;;14.90;99.90;;;;;;5018665;28;20036;-69
2022/05/24 00:18:00;;;;;;;9.52;4.78;;;15.00;99.90;;;;;;5031360;28;20028;-69
2022/05/24 00:20:37;;;;;;;6.93;3.30;;;15.10;99.90;;;;;;5032680;28;20395;-68
2022/05/24 00:23:06;;;;;;;5.95;3.40;;;15.20;99.90;;;;;;5019421;28;20034;-69
2022/05/24 00:25:36;;;;;;;5.82;2.85;;;15.20;99.90;;;;;;5013358;28;20033;-69
2022/05/24 00:28:05;;;;;;;5.20;3.10;;;15.20;99.90;;;;;;5020300;28;20548;-69
2022/05/24 00:30:33;;;;;;;7.95;4.18;;;15.20;99.90;;;;;;5013771;28;20030;-69
2022/05/24 00:33:01;;;;;;;10.77;3.00;;;15.30;99.90;;;;;;5014529;28;20546;-69
2022/05/24 00:35:28;;;;;;;13.27;3.13;;;15.30;99.90;;;;;;5026932;28;20025;-69
2022/05/24 00:37:56;;;;;;;8.77;2.10;;;15.30;99.90;;;;;;5022631;28;20021;-68
2022/05/24 00:40:41;;;;;;;5.05;2.33;;;15.40;99.90;;;;;;5016909;28;20395;-69
2022/05/24 00:43:38;;;;;;;9.13;3.00;;;15.50;99.90;;;;;;5017163;28;20026;-69
2022/05/24 00:46:22;;;;;;;6.90;2.90;;;15.50;99.90;;;;;;5018810;28;20041;-69
2022/05/24 00:49:14;;;;;;;8.80;2.70;;;15.60;99.90;;;;;;5010004;28;20406;-69
2022/05/24 00:51:52;;;;;;;6.32;2.40;;;15.80;99.90;;;;;;5013828;28;20407;-69
2022/05/24 00:54:19;;;;;;;5.03;2.00;;;15.80;99.90;;;;;;5012844;28;20025;-69
2022/05/24 00:56:58;;;;;;;8.60;2.92;;;15.90;99.90;;;;;;5013366;28;20026;-69
2022/05/24 00:59:35;;;;;;;4.63;1.95;;;16.00;99.90;;;;;;5023191;28;20022;-69
2022/05/24 01:02:03;;;;;;;4.97;1.58;;;15.90;99.90;;;;;;5014575;28;20029;-69
2022/05/24 01:04:30;;;;;;;9.93;2.53;;;15.90;99.90;;;;;;5041294;28;20086;-69
2022/05/24 01:06:58;;;;;;;6.88;2.20;;;15.90;99.90;;;;;;5033612;28;20040;-69
2022/05/24 01:09:49;;;;;;;4.63;1.38;;;16.00;99.90;;;;;;5023715;28;20033;-68
2022/05/24 01:12:25;;;;;;;5.47;1.58;;;16.00;99.90;;;;;;5022397;28;20048;-68
2022/05/24 01:14:54;;;;;;;8.80;1.73;;;16.20;99.90;;;;;;5026947;28;20026;-69
2022/05/24 01:17:21;;;;;;;7.32;1.70;;;16.20;99.90;;;;;;5022297;28;20030;-68
2022/05/24 01:19:49;;;;;;;11.38;1.85;;;16.20;99.90;;;;;;5020000;28;20022;-70
2022/05/24 01:22:41;;;;;;;8.63;2.95;;;16.20;99.90;;;;;;5019619;28;20021;-70
2022/05/24 01:25:26;;;;;;;6.25;1.63;;;16.30;99.90;;;;;;5017703;28;20470;-71
2022/05/24 01:27:54;;;;;;;6.88;1.70;;;16.30;99.90;;;;;;5016952;28;20033;-72
2022/05/24 01:30:21;;;;;;;7.38;1.73;;;16.30;99.90;;;;;;5020566;28;20033;-73
2022/05/24 01:38:24;;;;;;;9.45;2.13;;;16.60;99.90;;;;;;5018308;28;20097;-72
2022/05/24 01:40:54;;;;;;;6.95;1.63;;;16.70;99.90;;;;;;5012352;28;20463;-72
2022/05/24 01:43:26;;;;;;;6.53;2.08;;;16.70;99.90;;;;;;5012311;28;20034;-72
2022/05/24 01:45:59;;;;;;;10.90;1.70;;;16.80;99.90;;;;;;5024967;28;20566;-72
2022/05/24 01:48:52;;;;;;;6.72;1.55;;;16.80;99.90;;;;;;5016797;28;20109;-72
2022/05/24 01:51:42;;;;;;;8.25;1.92;;;16.80;99.90;;;;;;5018845;28;20018;-72
2022/05/24 01:54:10;;;;;;;6.28;1.63;;;16.90;99.90;;;;;;5027226;28;20041;-72
2022/05/24 01:56:44;;;;;;;7.47;1.50;;;17.00;99.90;;;;;;5013356;28;20022;-72
2022/05/24 01:59:13;;;;;;;6.70;1.27;;;17.00;99.90;;;;;;5015319;28;20105;-72
2022/05/24 02:01:42;;;;;;;6.63;1.83;;;17.10;99.90;;;;;;5026362;28;20021;-72
2022/05/24 02:04:10;;;;;;;4.40;0.73;;;17.00;99.90;;;;;;5020661;28;20040;-71
2022/05/24 02:06:37;;;;;;;4.13;0.40;;;16.60;99.90;;;;;;5030643;28;20060;-72
2022/05/24 02:09:06;;;;;;;2.70;1.00;;;16.40;99.90;;;;;;5021946;28;20025;-72
2022/05/24 02:11:34;;;;;;;4.72;0.80;;;16.30;99.90;;;;;;5029247;28;20025;-71
2022/05/24 02:14:05;;;;;;;4.00;0.82;;;16.20;99.90;;;;;;5013104;28;20038;-70
2022/05/24 02:16:36;;;;;;;5.85;3.72;;;16.20;99.90;;;;;;5011023;28;20030;-71
2022/05/24 02:19:04;;;;;;;4.35;1.70;;;16.20;99.90;;;;;;5014312;28;20053;-71
2022/05/24 02:21:31;;;;;;;2.22;0.60;;;16.10;99.90;;;;;;5032357;28;20108;-71
2022/05/24 02:23:58;;;;;;;5.22;1.17;;;16.10;99.90;;;;;;5013319;28;20506;-71
2022/05/24 02:26:28;;;;;;;5.32;1.20;;;16.00;99.90;;;;;;5031111;28;20913;-71
2022/05/24 02:28:56;;;;;;;8.32;1.92;;;15.90;99.90;;;;;;5013087;28;20086;-71
2022/05/24 02:31:24;;;;;;;6.35;1.10;;;15.90;99.90;;;;;;5013830;28;20475;-70
2022/05/24 02:33:52;;;;;;;5.90;1.95;;;15.60;99.90;;;;;;5016896;28;20076;-70
2022/05/24 02:36:19;;;;;;;5.97;2.83;;;15.30;99.90;;;;;;5034117;28;20061;-70
2022/05/24 02:38:47;;;;;;;8.20;2.00;;;15.40;99.90;;;;;;5017308;28;20104;-70
2022/05/24 02:41:29;;;;;;;6.47;1.85;;;15.40;99.90;;;;;;5034285;28;20061;-70
2022/05/24 02:44:07;;;;;;;2.97;0.90;;;15.30;99.90;;;;;;5016090;28;20092;-70
2022/05/24 02:46:37;;;;;;;4.78;1.45;;;15.20;99.90;;;;;;5015670;28;20036;-70
2022/05/24 02:49:05;;;;;;;3.05;0.85;;;14.90;99.90;;;;;;5023198;28;20029;-69
2022/05/24 02:51:33;;;;;;;2.88;0.60;;;14.80;99.90;;;;;;5015937;28;20037;-70
2022/05/24 02:54:01;;;;;;;4.35;0.77;;;14.70;99.90;;;;;;5021639;28;20034;-70
2022/05/24 02:56:28;;;;;;;6.03;0.95;;;14.70;99.90;;;;;;5032840;28;20139;-70
2022/05/24 02:58:56;;;;;;;6.03;1.15;;;14.70;99.90;;;;;;5025597;28;20079;-71
2022/05/24 03:01:28;;;;;;;4.05;0.70;;;14.70;99.90;;;;;;5035118;28;20116;-71
2022/05/24 03:03:57;;;;;;;3.30;0.95;;;14.60;99.90;;;;;;5016151;28;20021;-71
2022/05/24 03:06:25;;;;;;;2.45;0.32;;;14.50;99.90;;;;;;5015381;28;20076;-71
2022/05/24 03:14:24;;;;;;;2.67;0.30;;;14.40;99.90;;;;;;5013692;28;20044;-71
2022/05/24 03:16:53;;;;;;;2.03;0.45;;;14.40;99.90;;;;;;5024184;28;20083;-71
2022/05/24 03:19:23;;;;;;;5.80;0.73;;;14.40;99.90;;;;;;5021357;28;20034;-71
2022/05/24 03:21:50;;;;;;;3.35;0.47;;;14.50;99.90;;;;;;5024056;28;20030;-71
2022/05/24 03:24:18;;;;;;;2.47;0.73;;;14.40;99.90;;;;;;5015654;28;20018;-71
2022/05/24 03:26:45;;;;;;;3.60;1.17;;;14.50;99.90;;;;;;5016452;28;20034;-71
2022/05/24 03:29:13;;;;;;;4.22;0.98;;;14.50;99.90;;;;;;5028558;28;20393;-71
2022/05/24 03:31:41;;;;;;;3.45;0.77;;;14.50;99.90;;;;;;5031556;28;20060;-72
2022/05/24 03:34:09;;;;;;;2.30;0.60;;;14.60;99.90;;;;;;5021375;28;20037;-71
2022/05/24 03:36:36;;;;;;;3.00;0.63;;;14.70;99.90;;;;;;5019537;28;20022;-71
2022/05/24 03:39:05;;;;;;;3.67;0.68;;;14.70;99.90;;;;;;5015946;28;20030;-72
2022/05/24 03:41:33;;;;;;;2.72;1.02;;;14.80;99.90;;;;;;5020829;28;20427;-71
2022/05/24 03:44:00;;;;;;;4.32;0.98;;;14.80;99.90;;;;;;5021941;28;20118;-72
2022/05/24 03:46:28;;;;;;;2.63;1.55;;;14.80;99.90;;;;;;5017130;28;20474;-72
2022/05/24 03:48:55;;;;;;;1.80;0.80;;;14.90;99.90;;;;;;5014677;28;20151;-71
2022/05/24 03:51:22;;;;;;;6.15;1.52;;;14.90;99.90;;;;;;5025339;28;20017;-71
2022/05/24 03:53:49;;;;;;;8.57;1.45;;;15.00;99.90;;;;;;5016525;28;20497;-71
2022/05/24 03:56:17;;;;;;;2.28;1.20;;;15.20;99.90;;;;;;5021700;28;20021;-71
2022/05/24 03:58:44;;;;;;;5.75;1.60;;;15.20;99.90;;;;;;5017694;28;20030;-71
2022/05/24 04:01:11;;;;;;;3.83;1.50;;;15.30;99.90;;;;;;5029901;28;20071;-71
2022/05/24 04:03:38;;;;;;;4.30;1.30;;;15.40;99.90;;;;;;5017881;28;20033;-71
2022/05/24 04:06:06;;;;;;;4.10;1.88;;;15.50;99.90;;;;;;5025145;28;20112;-72
2022/05/24 04:08:33;;;;;;;6.47;1.40;;;15.50;99.90;;;;;;5033173;28;20132;-71
2022/05/24 04:11:06;;;;;;;4.25;1.42;;;15.60;99.90;;;;;;5023115;28;20030;-71
2022/05/24 04:13:36;;;;;;;3.75;1.50;;;15.70;99.90;;;;;;5019328;28;20029;-71
2022/05/24 04:16:03;;;;;;;8.02;1.50;;;15.70;99.90;;;;;;5021722;28;20026;-72
2022/05/24 04:18:31;;;;;;;8.50;1.33;;;15.70;99.90;;;;;;5022058;28;20041;-71
2022/05/24 04:20:58;;;;;;;8.63;2.70;;;15.60;99.90;;;;;;5020774;28;20034;-71
2022/05/24 04:23:26;;;;;;;8.68;2.03;;;15.70;99.90;;;;;;5018931;28;20021;-71
2022/05/24 04:25:54;;;;;;;11.07;1.95;;;15.70;99.90;;;;;;5020960;28;20029;-71
2022/05/24 04:28:23;;;;;;;8.35;2.63;;;15.80;99.90;;;;;;5017947;28;20038;-70
2022/05/24 04:30:52;;;;;;;7.78;1.67;;;15.90;99.90;;;;;;5029466;28;20108;-70
2022/05/24 04:33:20;;;;;;;6.45;1.35;;;16.00;99.90;;;;;;5022253;28;20381;-71
2022/05/24 04:35:47;;;;;;;3.42;0.93;;;15.80;99.90;;;;;;5028744;28;20474;-70
2022/05/24 04:38:15;;;;;;;6.10;0.60;;;15.90;99.90;;;;;;5019984;28;20548;-71
2022/05/24 04:43:27;;;;;;;3.38;0.80;;;16.00;99.90;;;;;;5022715;28;20041;-71
2022/05/24 04:45:55;;;;;;;3.85;0.40;;;15.90;99.90;;;;;;5032565;28;20034;-70
2022/05/24 04:48:22;;;;;;;6.20;0.65;;;16.00;99.90;;;;;;5017806;28;20022;-71
2022/05/24 04:50:54;;;;;;;2.30;0.43;;;15.80;99.90;;;;;;5013350;28;20030;-71
2022/05/24 04:53:23;;;;;;;5.38;0.50;;;15.70;99.90;;;;;;5013667;28;20431;-71
2022/05/24 04:55:50;;;;;;;5.25;0.50;;;15.80;99.90;;;;;;5022864;28;20026;-71
2022/05/24 04:58:19;;;;;;;2.40;0.30;;;15.80;99.90;;;;;;5025034;28;20694;-71
2022/05/24 05:00:48;;;;;;;5.97;0.70;;;15.70;99.90;;;;;;5031854;28;20029;-71
2022/05/24 05:03:20;;;;;;;5.03;0.60;;;15.80;99.90;;;;;;5018183;28;20092;-71
2022/05/24 05:05:49;;;;;;;2.88;0.50;;;15.90;99.90;;;;;;5016905;28;20111;-71
2022/05/24 05:08:17;;;;;;;3.28;0.30;;;15.90;99.90;;;;;;5015973;28;20037;-71
2022/05/24 05:10:45;;;;;;;2.58;0.50;;;15.90;99.90;;;;;;5013224;28;20116;-71
2022/05/24 05:13:12;;;;;;;5.85;0.55;;;15.90;99.90;;;;;;5025338;28;20037;-72
2022/05/24 05:15:39;;;;;;;2.42;0.13;;;16.00;99.90;;;;;;5032106;28;20088;-70
2022/05/24 05:18:12;;;;;;;1.33;0.25;;;16.00;99.90;;;;;;5031484;28;20025;-71
2022/05/24 05:20:41;;;;;;;0.60;0.10;;;15.80;99.90;;;;;;5020504;28;20022;-71
2022/05/24 05:23:10;;;;;;;3.40;0.13;;;15.90;99.90;;;;;;5014579;28;20030;-71
2022/05/24 05:25:39;;;;;;;5.53;0.43;;;15.80;99.90;;;;;;5023069;28;20653;-71
2022/05/24 05:28:06;;;;;;;1.17;0.20;;;15.70;99.90;;;;;;5020090;28;20034;-71
2022/05/24 05:33:21;;;;;;;1.75;0.10;;;15.80;99.90;;;;;;5013297;28;20096;-71
2022/05/24 05:35:51;;;;;;;3.47;0.20;;;15.80;99.90;;;;;;5027438;28;20100;-71
2022/05/24 05:38:19;;;;;;;2.55;0.17;;;15.80;99.90;;;;;;5018352;28;20022;-71
2022/05/24 05:40:49;;;;;;;4.90;0.30;;;15.80;99.90;;;;;;5019563;28;20471;-71
2022/05/24 05:43:16;;;;;;;1.15;0.10;;;15.90;99.90;;;;;;5019316;28;20025;-71
2022/05/24 05:45:43;;;;;;;1.80;0.20;;;15.90;99.90;;;;;;5013058;28;20121;-71
2022/05/24 05:48:11;;;;;;;3.38;0.40;;;15.90;99.90;;;;;;5013034;28;20100;-71
2022/05/24 05:50:40;;;;;;;2.60;0.43;;;15.90;99.90;;;;;;5012772;28;20026;-71
2022/05/24 05:53:07;;;;;;;1.70;0.28;;;15.90;99.90;;;;;;5012801;28;20053;-71
2022/05/24 05:55:37;;;;;;;2.20;0.73;;;15.90;99.90;;;;;;5012647;28;20470;-71
2022/05/24 05:58:05;;;;;;;3.55;0.40;;;15.80;99.90;;;;;;5024165;28;20123;-71
2022/05/24 06:00:32;;;;;;;1.63;0.30;;;15.80;99.90;;;;;;5026561;28;20108;-71
2022/05/24 06:02:59;;;;;;;2.28;0.82;;;15.80;99.90;;;;;;5019405;28;20022;-71
2022/05/24 06:05:27;;;;;;;3.42;0.50;;;15.80;99.90;;;;;;5013014;28;20029;-71
2022/05/24 06:07:59;;;;;;;2.10;0.40;;;15.70;99.90;;;;;;5017908;28;20060;-71
2022/05/24 06:10:28;;;;;;;4.63;0.38;;;15.60;99.90;;;;;;5016221;28;20026;-71
2022/05/24 06:12:57;;;;;;;1.35;0.30;;;15.60;99.90;;;;;;5017227;28;20029;-71
2022/05/24 06:15:27;;;;;;;1.33;0.30;;;15.70;99.90;;;;;;5021593;28;20543;-71
2022/05/24 06:17:55;;;;;;;1.63;0.30;;;15.70;99.90;;;;;;5023354;28;20045;-71
2022/05/24 06:20:26;;;;;;;2.40;0.20;;;15.70;99.90;;;;;;5025951;28;20525;-71
2022/05/24 06:22:55;;;;;;;2.15;0.60;;;15.70;99.90;;;;;;5022391;28;20103;-71
2022/05/24 06:25:23;;;;;;;1.67;0.32;;;15.60;99.90;;;;;;5016432;28;20101;-71
2022/05/24 06:27:51;;;;;;;2.92;0.40;;;15.60;99.90;;;;;;5025922;28;20026;-71
2022/05/24 06:30:20;;;;;;;2.00;0.30;;;15.60;99.90;;;;;;5031900;28;20075;-70
2022/05/24 06:32:48;;;;;;;2.80;0.60;;;15.40;99.90;;;;;;5029506;28;20037;-70
2022/05/24 06:35:16;;;;;;;2.25;0.50;;;15.40;99.90;;;;;;5019052;28;20065;-69
2022/05/24 06:37:43;;;;;;;4.43;0.38;;;15.40;99.90;;;;;;5021004;28;20052;-68
2022/05/24 06:40:14;;;;;;;5.10;0.80;;;15.40;99.90;;;;;;5027521;28;20026;-68
2022/05/24 06:42:41;;;;;;;3.10;1.30;;;15.40;99.90;;;;;;5019440;28;20598;-68
2022/05/24 06:45:09;;;;;;;13.43;4.28;;;15.30;99.90;;;;;;5020460;28;20473;-68
2022/05/24 06:47:37;;;;;;;9.00;3.60;;;15.20;99.90;;;;;;5019909;28;20358;-69
2022/05/24 06:50:05;;;;;;;18.02;10.48;;;15.20;99.90;;;;;;5034160;28;20137;-68
2022/05/24 06:52:33;;;;;;;13.68;8.18;;;15.20;99.90;;;;;;5030498;28;20050;-68
2022/05/24 06:55:00;;;;;;;10.70;6.18;;;15.10;99.90;;;;;;5024810;28;21078;-68
2022/05/24 06:57:27;;;;;;;5.07;2.70;;;15.00;99.90;;;;;;5022912;28;20045;-68
2022/05/24 07:02:40;;;;;;;7.00;2.03;;;14.90;99.90;;;;;;5015543;28;20037;-69
2022/05/24 07:05:14;;;;;;;4.38;1.40;;;14.80;99.90;;;;;;5015449;28;20033;-69
2022/05/24 07:07:42;;;;;;;10.23;3.03;;;14.80;99.90;;;;;;5018544;28;20486;-68
2022/05/24 07:10:12;;;;;;;5.07;2.65;;;14.70;99.90;;;;;;5024064;28;20043;-68
2022/05/24 07:12:40;;;;;;;6.78;2.22;;;14.70;99.90;;;;;;5025738;28;20076;-68
2022/05/24 07:15:07;;;;;;;8.52;2.60;;;14.60;99.90;;;;;;5022963;28;20123;-69
2022/05/24 07:17:35;;;;;;;8.32;1.60;;;14.60;99.90;;;;;;5014818;28;20034;-69
2022/05/24 07:20:02;;;;;;;2.28;0.80;;;14.50;99.90;;;;;;5023051;28;20393;-68
2022/05/24 07:22:29;;;;;;;1.75;0.75;;;14.50;99.90;;;;;;5017070;28;20107;-68
2022/05/24 07:24:57;;;;;;;4.38;0.80;;;14.40;99.90;;;;;;5029177;28;20088;-68
2022/05/24 07:27:24;;;;;;;5.00;0.93;;;14.40;99.90;;;;;;5028126;28;20488;-68
2022/05/24 07:29:51;;;;;;;2.60;0.60;;;14.40;99.90;;;;;;5017565;28;20344;-69
2022/05/24 07:32:19;;;;;;;1.45;0.30;;;14.40;99.90;;;;;;5018304;28;20014;-69
2022/05/24 07:34:46;;;;;;;1.65;0.40;;;14.30;99.90;;;;;;5021775;28;20029;-70
2022/05/24 07:37:16;;;;;;;13.13;0.93;;;14.30;99.90;;;;;;5030462;28;20026;-69
2022/05/24 07:39:44;;;;;;;4.22;0.47;;;14.30;99.90;;;;;;5016212;28;20555;-69
2022/05/24 07:47:45;;;;;;;5.10;2.80;;;14.20;99.90;;;;;;5026474;28;20061;-70
2022/05/24 07:50:12;;;;;;;10.98;5.18;;;14.20;99.90;;;;;;5015096;28;20491;-70
2022/05/24 07:52:39;;;;;;;5.75;3.65;;;14.20;99.90;;;;;;5025586;28;20058;-71
2022/05/24 07:55:07;;;;;;;5.35;3.40;;;14.20;99.90;;;;;;5028517;28;20025;-70
2022/05/24 07:57:34;;;;;;;7.00;5.43;;;14.20;99.90;;;;;;5018517;28;20131;-70
2022/05/24 08:00:02;;;;;;;8.68;6.53;;;14.10;99.90;;;;;;5026787;28;20033;-70
2022/05/24 08:02:29;;;;;;;6.97;5.68;;;14.10;99.90;;;;;;5019031;28;20040;-70
2022/05/24 08:04:56;;;;;;;8.98;5.53;;;14.10;99.90;;;;;;5030121;28;20043;-72
2022/05/24 08:07:23;;;;;;;8.07;4.63;;;14.10;99.90;;;;;;5022315;28;20018;-72
2022/05/24 08:09:51;;;;;;;5.85;4.15;;;14.10;99.90;;;;;;5023764;28;20084;-72
2022/05/24 08:12:18;;;;;;;4.97;2.50;;;14.10;99.90;;;;;;5027250;28;20033;-73
2022/05/24 08:14:45;;;;;;;4.82;1.92;;;14.10;99.90;;;;;;5026224;28;20421;-72
2022/05/24 08:17:12;;;;;;;3.72;1.30;;;14.10;99.90;;;;;;5021380;28;20270;-72
2022/05/24 08:19:40;;;;;;;2.83;1.05;;;14.10;99.90;;;;;;5028443;28;20026;-72
2022/05/24 08:22:08;;;;;;;5.93;1.38;;;14.10;99.90;;;;;;5028623;28;20021;-72
2022/05/24 08:24:35;;;;;;;5.13;1.70;;;14.10;99.90;;;;;;5024601;28;20040;-72
2022/05/24 08:27:03;;;;;;;7.07;1.85;;;14.10;99.90;;;;;;5024605;28;20056;-72
2022/05/24 08:29:31;;;;;;;3.90;1.67;;;14.10;99.90;;;;;;5027781;28;20474;-71
2022/05/24 08:31:58;;;;;;;8.00;2.20;;;14.10;99.90;;;;;;5025388;28;20120;-70
2022/05/24 08:34:25;;;;;;;5.00;1.65;;;14.20;99.90;;;;;;5019829;28;20113;-71
2022/05/24 08:36:53;;;;;;;5.03;1.80;;;14.20;99.90;;;;;;5027057;28;20083;-71
2022/05/24 08:39:20;;;;;;;5.82;1.85;;;14.20;99.90;;;;;;5025376;28;20025;-70
2022/05/24 08:42:11;;;;;;;6.20;1.92;;;14.30;99.90;;;;;;5021238;28;20108;-71
2022/05/24 08:50:19;;;;;;;5.82;1.50;;;14.20;99.90;;;;;;5014529;28;20037;-71
2022/05/24 08:52:55;;;;;;;6.50;2.70;;;14.20;99.90;;;;;;5031372;28;20144;-71
2022/05/24 08:55:23;;;;;;;5.95;1.80;;;14.20;99.90;;;;;;5025385;28;20040;-71
2022/05/24 08:57:57;;;;;;;5.47;2.42;;;14.20;99.90;;;;;;5025058;28;20023;-72
2022/05/24 09:00:34;;;;;;;5.82;2.75;;;14.20;99.90;;;;;;5012824;28;20030;-72
2022/05/24 09:03:05;;;;;;;5.90;2.97;;;14.30;99.90;;;;;;5028835;28;20097;-72
2022/05/24 09:05:39;;;;;;;8.23;2.25;;;14.30;99.90;;;;;;5026725;28;20034;-71
2022/05/24 09:08:34;;;;;;;4.18;1.80;;;14.30;99.90;;;;;;5020284;28;20213;-70
2022/05/24 09:11:30;;;;;;;4.32;2.25;;;14.30;99.90;;;;;;5024357;28;20091;-71
2022/05/24 09:14:29;;;;;;;7.00;2.70;;;14.30;99.90;;;;;;5019889;28;20116;-70
2022/05/24 09:17:27;;;;;;;7.07;2.75;;;14.40;99.90;;;;;;5019226;28;20359;-71
2022/05/24 09:19:55;;;;;;;4.50;3.08;;;14.30;99.90;;;;;;5021431;28;20024;-70
2022/05/24 09:22:22;;;;;;;10.98;3.97;;;14.30;99.90;;;;;;5023177;28;20080;-70
2022/05/24 09:24:56;;;;;;;6.50;3.20;;;14.30;99.90;;;;;;5021819;28;20030;-71
2022/05/24 09:27:28;;;;;;;10.68;3.60;;;14.30;99.90;;;;;;5027747;28;20026;-71
2022/05/24 09:30:20;;;;;;;6.93;3.60;;;14.30;99.90;;;;;;5021333;28;20029;-70
2022/05/24 09:32:48;;;;;;;7.85;3.03;;;14.40;99.90;;;;;;5014599;28;20021;-70
2022/05/24 09:35:24;;;;;;;7.57;3.72;;;14.40;99.90;;;;;;5018920;28;20030;-70
2022/05/24 09:38:14;;;;;;;5.15;2.38;;;14.40;99.90;;;;;;5017289;28;20030;-70
2022/05/24 09:40:58;;;;;;;11.77;3.25;;;14.40;99.90;;;;;;5017825;28;20034;-70
2022/05/24 09:43:33;;;;;;;5.05;2.63;;;14.40;99.90;;;;;;5017890;28;20052;-70
2022/05/24 09:46:04;;;;;;;;;;;14.50;99.90;;;;;;5020960;28;20120;-71
2022/05/24 09:48:35;;;;;;;7.00;1.80;;;14.60;99.90;;;;;;5018575;28;19909;-70
2022/05/24 09:51:09;;;;;;;7.82;1.70;;;14.70;99.90;;;;;;5019899;28;20108;-70
2022/05/24 09:53:49;;;;;;;8.75;3.58;;;14.70;99.90;;;;;;4905908;28;3329949;-70
2022/05/24 09:56:34;;;;;;;7.13;3.42;;;14.80;99.90;;;;;;5018102;28;20022;-70
2022/05/24 09:59:09;;;;;;;13.80;4.20;;;14.80;99.90;;;;;;5014101;28;20104;-71
2022/05/24 10:01:49;;;;;;;8.80;3.90;;;14.70;99.90;;;;;;5026653;28;20033;-71
2022/05/24 10:04:35;;;;;;;10.07;4.38;;;14.60;99.90;;;;;;5024207;28;20112;-71
2022/05/24 10:07:07;;;;;;;10.00;3.80;;;14.60;99.90;;;;;;5024004;28;20102;-70
2022/05/24 10:09:53;;;;;;;5.63;3.13;;;14.60;99.90;;;;;;5027449;28;20031;-71
2022/05/24 10:12:57;;;;;;;11.68;4.43;;;14.60;99.90;;;;;;5018241;28;20029;-71
2022/05/24 10:15:54;;;;;;;5.90;3.72;;;14.50;99.90;;;;;;5025030;28;20022;-70
2022/05/24 10:18:41;;;;;;;9.75;3.53;;;14.40;99.90;;;;;;5023705;28;20046;-70
2022/05/24 10:21:25;;;;;;;5.80;2.97;;;14.40;99.90;;;;;;5019460;28;20957;-70
2022/05/24 10:24:24;;;;;;;8.07;3.53;;;14.40;99.90;;;;;;5016078;28;20035;-71
2022/05/24 10:26:57;;;;;;;10.23;3.38;;;14.50;99.90;;;;;;5024587;28;20042;-70
2022/05/24 10:29:31;;;;;;;8.05;2.70;;;14.50;99.90;;;;;;5027256;28;20033;-71
2022/05/24 10:32:06;;;;;;;7.20;2.90;;;14.50;99.90;;;;;;5024803;28;20041;-70
2022/05/24 10:40:43;;;;;;;7.97;4.05;;;14.40;99.90;;;;;;5020089;28;20045;-70
2022/05/24 10:43:38;;;;;;;13.73;4.40;;;14.40;99.90;;;;;;5022670;28;20049;-70
2022/05/24 10:46:29;;;;;;;8.48;4.05;;;14.40;99.90;;;;;;5025377;28;20520;-70
2022/05/24 10:49:32;;;;;;;7.30;3.60;;;14.40;99.90;;;;;;5011805;28;20034;-70
2022/05/24 10:52:11;;;;;;;11.07;4.40;;;14.40;99.90;;;;;;5023611;28;20069;-70
2022/05/24 10:55:12;;;;;;;8.30;5.03;;;14.40;99.90;;;;;;5023034;28;20124;-70
2022/05/24 10:57:55;;;;;;;10.73;5.40;;;14.40;99.90;;;;;;5030340;28;20021;-70
2022/05/24 11:00:32;;;;;;;10.05;5.00;;;14.40;99.90;;;;;;5023586;28;20061;-70
2022/05/24 11:03:08;;;;;;;8.65;5.85;;;14.40;99.90;;;;;;5021323;28;20505;-70
2022/05/24 11:05:41;;;;;;;9.40;5.65;;;14.30;99.90;;;;;;5024638;28;20034;-70
2022/05/24 11:08:30;;;;;;;11.48;6.28;;;14.30;99.90;;;;;;5027819;28;20041;-71
2022/05/24 11:11:20;;;;;;;13.10;6.28;;;14.20;99.90;;;;;;5023865;28;20113;-70
2022/05/24 11:14:13;;;;;;;10.48;6.47;;;14.30;99.90;;;;;;5020581;28;20138;-71
2022/05/24 11:16:46;;;;;;;9.73;5.50;;;14.30;99.90;;;;;;5023444;28;20363;-70
2022/05/24 11:19:22;;;;;;;12.55;6.95;;;14.30;99.90;;;;;;5017071;28;20506;-71
2022/05/24 11:22:46;;;;;;;10.45;6.32;;;14.30;99.90;;;;;;5018778;28;20132;-70
2022/05/24 11:25:31;;;;;;;9.38;6.35;;;14.20;99.90;;;;;;5027688;28;20026;-71
2022/05/24 11:28:03;;;;;;;14.88;7.55;;;14.10;99.90;;;;;;5022033;28;20414;-69
2022/05/24 11:30:30;;;;;;;15.20;8.23;;;14.10;99.90;;;;;;5023149;28;20025;-70
2022/05/24 11:33:14;;;;;;;14.35;7.55;;;14.10;99.90;;;;;;5022298;28;20032;-70
2022/05/24 11:35:41;;;;;;;11.57;6.30;;;14.00;99.90;;;;;;5019664;28;20135;-70
2022/05/24 11:38:24;;;;;;;10.85;6.38;;;13.90;99.90;;;;;;5028235;28;20052;-70
2022/05/24 11:41:27;;;;;;;10.45;6.72;;;13.80;99.90;;;;;;5016697;28;20447;-70
2022/05/24 11:43:54;;;;;;;10.35;6.65;;;13.80;99.90;;;;;;5021293;28;20167;-70
2022/05/24 11:46:44;;;;;;;11.82;6.40;;;13.80;99.90;;;;;;5021748;28;20022;-70
2022/05/24 11:49:24;;;;;;;13.70;6.50;;;13.80;99.90;;;;;;5018241;28;20017;-71
2022/05/24 11:51:57;;;;;;;9.70;6.18;;;13.80;99.90;;;;;;5026134;28;20053;-72
2022/05/24 11:54:24;;;;;;;11.15;5.85;;;13.80;99.90;;;;;;5022289;28;20030;-71
2022/05/24 11:57:01;;;;;;;10.50;6.55;;;13.80;99.90;;;;;;5016485;28;20029;-72
2022/05/24 11:59:41;;;;;;;10.13;6.57;;;13.80;99.90;;;;;;5021143;28;20033;-71
2022/05/24 12:02:27;;;;;;;13.98;7.28;;;13.80;99.90;;;;;;5017742;28;20133;-73
2022/05/24 12:08:04;;;;;;;;;;;13.80;99.90;;;;;;5018368;28;20097;-72
2022/05/24 12:10:35;;;;;;;12.60;6.88;;;13.80;99.90;;;;;;5025425;28;19909;-72
2022/05/24 12:13:08;;;;;;;12.95;7.30;;;13.80;99.90;;;;;;5021744;28;20037;-71
2022/05/24 12:15:40;;;;;;;16.05;7.90;;;13.80;99.90;;;;;;5015373;28;20030;-71
2022/05/24 12:18:11;;;;;;;13.57;8.02;;;13.70;99.90;;;;;;5016527;28;20432;-70
2022/05/24 12:20:38;;;;;;;12.57;7.85;;;13.70;99.90;;;;;;5024123;28;20040;-70
2022/05/24 12:23:14;;;;;;;12.93;6.85;;;13.70;99.90;;;;;;5023904;28;20414;-69
2022/05/24 12:26:03;;;;;;;9.55;6.95;;;13.60;99.90;;;;;;5027735;28;20072;-69
2022/05/24 12:28:30;;;;;;;12.45;7.65;;;13.50;99.90;;;;;;5020245;28;20033;-70
2022/05/24 12:30:59;;;;;;;12.73;7.57;;;13.50;99.90;;;;;;5028775;28;20159;-70
2022/05/24 12:33:33;;;;;;;13.80;8.10;;;13.40;99.90;;;;;;5022295;28;20033;-70
2022/05/24 12:36:05;;;;;;;12.13;7.10;;;13.40;99.90;;;;;;5021665;28;20063;-69
2022/05/24 12:38:35;;;;;;;11.93;7.50;;;13.40;99.90;;;;;;5020335;28;20270;-71
2022/05/24 12:41:28;;;;;;;13.77;8.15;;;13.40;99.90;;;;;;5031985;28;20021;-71
2022/05/24 12:44:02;;;;;;;13.77;7.88;;;13.40;99.90;;;;;;5022838;28;20037;-71
2022/05/24 12:46:35;;;;;;;15.20;7.97;;;13.40;99.90;;;;;;5017465;28;20053;-70
2022/05/24 12:49:15;;;;;;;15.45;8.23;;;13.40;99.90;;;;;;5029220;28;20390;-70
2022/05/24 12:51:42;;;;;;;17.63;8.68;;;13.40;99.90;;;;;;5016082;28;20053;-70
2022/05/24 12:54:19;;;;;;;18.90;10.80;;;13.30;99.90;;;;;;5022997;28;20029;-71
2022/05/24 12:56:58;;;;;;;14.13;9.10;;;13.40;99.90;;;;;;5017110;28;20034;-71
2022/05/24 12:59:34;;;;;;;14.63;8.27;;;13.40;99.90;;;;;;5014576;28;20099;-71
2022/05/24 13:02:31;;;;;;;18.40;8.27;;;13.40;99.90;;;;;;5016828;28;20025;-70
2022/05/24 13:05:07;;;;;;;13.75;7.63;;;13.40;99.90;;;;;;5014431;28;20037;-70
2022/05/24 13:07:40;;;;;;;11.02;7.93;;;13.40;99.90;;;;;;5018531;28;20022;-70
2022/05/24 13:10:37;;;;;;;12.10;8.32;;;13.40;99.90;;;;;;5022162;28;20022;-70
2022/05/24 13:13:16;;;;;;;13.65;8.02;;;13.40;99.90;;;;;;5017038;28;20097;-70
2022/05/24 13:15:53;;;;;;;12.25;8.15;;;13.50;99.90;;;;;;5015111;28;20033;-70
2022/05/24 13:18:22;;;;;;;16.10;8.50;;;13.40;99.90;;;;;;5020123;28;20029;-70
2022/05/24 13:20:56;;;;;;;15.25;8.23;;;13.40;99.90;;;;;;5019055;28;20049;-70
2022/05/24 13:23:32;;;;;;;15.97;8.13;;;13.30;99.90;;;;;;5018927;28;20029;-70
2022/05/24 13:26:02;;;;;;;14.23;9.00;;;13.40;99.90;;;;;;5021777;28;20379;-70
2022/05/24 13:28:42;;;;;;;13.38;8.50;;;13.30;99.90;;;;;;5016617;28;20508;-70
2022/05/24 13:34:11;;;;;;;14.45;8.63;;;13.20;99.90;;;;;;5021169;28;20405;-70
2022/05/24 13:36:51;;;;;;;13.80;8.23;;;13.20;99.90;;;;;;5023840;28;20029;-70
2022/05/24 13:39:23;;;;;;;14.98;7.93;;;13.20;99.90;;;;;;5023411;28;20067;-71
2022/05/24 13:42:09;;;;;;;14.48;7.72;;;13.20;99.90;;;;;;5015519;28;20399;-70
2022/05/24 13:44:39;;;;;;;11.02;7.93;;;13.20;99.90;;;;;;5025728;28;20088;-70
2022/05/24 13:47:25;;;;;;;10.90;7.55;;;13.20;99.90;;;;;;5013396;28;20033;-70
2022/05/24 13:49:57;;;;;;;11.90;8.52;;;13.30;99.90;;;;;;5023616;28;20053;-71
2022/05/24 13:52:32;;;;;;;13.63;8.27;;;13.30;99.90;;;;;;5013114;28;20065;-71
2022/05/24 13:55:22;;;;;;;12.40;8.57;;;13.30;99.90;;;;;;5021306;28;20033;-70
2022/05/24 13:58:08;;;;;;;12.68;8.80;;;13.30;99.90;;;;;;5013491;28;20026;-70